Terminal Aerodrome Forecast
Issued by NWS

Home | Current Version | Previous Version | Graphics & Text | Print | Product List | Glossary On
Versions: 1 2 3 4 5 6 7 8 9 10 11 12 13 14 15 16 17 18 19 20 21 22 23 24 25 26 27 28 29 30 31 32 33 34 35 36 37 38 39 40 41 42
000
FTUS43 KLOT 220200 AAA
TAFDPA
TAF AMD
KDPA 220235Z 2203/2224 02006KT P6SM SCT028
     FM220400 02005KT P6SM BKN028
     FM220900 06003KT P6SM SCT028
     FM221400 08005KT P6SM SKC=

USA.gov is the U.S. government's official web portal to all federal, state and local government web resources and services.